createdAt,value
2022-12-28T00:04:38.597Z,38.70
2022-12-28T00:07:05.107Z,38.60
2022-12-28T00:11:58.537Z,39.00
2022-12-28T00:14:25.029Z,38.80
2022-12-28T00:16:51.606Z,38.70
2022-12-28T00:21:47.899Z,38.60
2022-12-28T00:24:14.332Z,38.40
2022-12-28T00:26:40.768Z,38.60
2022-12-28T00:29:07.269Z,38.40
2022-12-28T00:31:33.896Z,38.60
2022-12-28T00:37:10.368Z,38.50
2022-12-28T00:39:14.047Z,38.70
2022-12-28T00:41:40.564Z,38.00
2022-12-28T00:46:34.029Z,38.30
2022-12-28T00:49:00.480Z,38.50
2022-12-28T00:51:26.954Z,38.30
2022-12-28T00:56:20.463Z,37.90
2022-12-28T00:58:46.919Z,38.40
2022-12-28T01:01:13.411Z,38.50
2022-12-28T01:03:39.913Z,38.40
2022-12-28T01:06:06.349Z,38.40
2022-12-28T01:08:32.830Z,38.10
2022-12-28T01:10:59.268Z,38.30
2022-12-28T01:13:25.746Z,38.70
2022-12-28T01:15:52.263Z,38.60
2022-12-28T01:18:19.691Z,38.70
2022-12-28T01:20:46.158Z,38.40
2022-12-28T01:23:12.602Z,38.50
2022-12-28T01:25:39.061Z,38.60
2022-12-28T01:28:05.524Z,38.50
2022-12-28T01:30:32.016Z,38.70
2022-12-28T01:32:58.488Z,38.80
2022-12-28T01:35:25.009Z,38.60
2022-12-28T01:37:51.464Z,38.70
2022-12-28T01:40:17.925Z,38.80
2022-12-28T01:42:44.392Z,38.60
2022-12-28T01:45:10.870Z,39.20
2022-12-28T01:47:37.370Z,38.30
2022-12-28T01:50:03.860Z,38.40
2022-12-28T01:52:30.305Z,38.40
2022-12-28T01:54:56.749Z,38.20
2022-12-28T01:57:23.206Z,38.70
2022-12-28T02:02:16.826Z,38.20
2022-12-28T02:04:43.419Z,38.30
2022-12-28T02:09:36.948Z,38.20
2022-12-28T02:12:03.469Z,38.50
2022-12-28T02:14:30.011Z,38.40
2022-12-28T02:19:23.546Z,38.30
2022-12-28T02:21:50.023Z,38.30
2022-12-28T02:26:43.442Z,38.40
2022-12-28T02:29:09.900Z,38.60
2022-12-28T02:31:36.351Z,38.40
2022-12-28T02:34:02.848Z,38.30
2022-12-28T02:36:29.354Z,38.20
2022-12-28T02:38:55.804Z,38.90
2022-12-28T02:41:22.317Z,38.30
2022-12-28T02:43:48.762Z,38.30
2022-12-28T02:48:42.291Z,38.40
2022-12-28T02:51:08.775Z,38.30
2022-12-28T02:53:35.271Z,38.20
2022-12-28T02:56:01.731Z,38.50
2022-12-28T03:00:55.295Z,38.70
2022-12-28T03:03:21.875Z,38.20
2022-12-28T03:08:15.527Z,38.80
2022-12-28T03:10:41.961Z,38.20
2022-12-28T03:13:08.415Z,38.70
2022-12-28T03:15:34.951Z,38.50
2022-12-28T03:18:01.548Z,38.30
2022-12-28T03:20:28.022Z,38.10
2022-12-28T03:22:54.474Z,38.40
2022-12-28T03:25:20.937Z,37.90
2022-12-28T03:27:47.396Z,38.40
2022-12-28T03:30:13.886Z,39.10
2022-12-28T03:32:40.376Z,38.40
2022-12-28T03:35:06.870Z,38.60
2022-12-28T03:37:33.317Z,38.10
2022-12-28T03:42:26.737Z,38.70
2022-12-28T03:44:53.219Z,38.60
2022-12-28T03:47:19.670Z,38.50
2022-12-28T03:49:46.158Z,38.40
2022-12-28T03:52:12.678Z,39.50
2022-12-28T03:54:39.166Z,38.50
2022-12-28T03:57:05.690Z,38.70
2022-12-28T04:01:59.177Z,38.00
2022-12-28T04:04:25.741Z,38.30
2022-12-28T04:06:52.223Z,38.30
2022-12-28T04:11:45.680Z,38.40
2022-12-28T04:14:12.207Z,38.60
2022-12-28T04:16:38.676Z,38.50
2022-12-28T04:19:05.118Z,38.90
2022-12-28T04:21:31.624Z,38.30
2022-12-28T04:23:58.125Z,38.70
2022-12-28T04:26:24.620Z,38.40
2022-12-28T04:28:51.119Z,38.10
2022-12-28T04:31:17.584Z,38.70
2022-12-28T04:33:44.036Z,37.80
2022-12-28T04:36:10.520Z,38.10
2022-12-28T04:38:36.991Z,38.20
2022-12-28T04:41:03.451Z,38.50
2022-12-28T04:43:29.933Z,38.70
2022-12-28T04:45:56.444Z,38.60
2022-12-28T04:48:22.922Z,38.70
2022-12-28T04:50:49.363Z,38.50
2022-12-28T04:53:15.816Z,38.10
2022-12-28T04:55:42.276Z,38.10
2022-12-28T04:58:08.788Z,38.60
2022-12-28T05:00:35.359Z,38.40
2022-12-28T05:03:01.888Z,38.10
2022-12-28T05:05:28.381Z,38.00
2022-12-28T05:07:54.877Z,38.30
2022-12-28T05:10:21.338Z,38.20
2022-12-28T05:12:47.776Z,38.40
2022-12-28T05:15:14.283Z,38.10
2022-12-28T05:17:40.768Z,38.10
2022-12-28T05:20:07.281Z,38.10
2022-12-28T05:22:37.746Z,38.20
2022-12-28T05:25:07.090Z,38.10
2022-12-28T05:30:00.690Z,38.30
2022-12-28T05:32:27.164Z,38.10
2022-12-28T05:34:53.660Z,38.10
2022-12-28T05:37:22.145Z,37.90
2022-12-28T05:39:48.890Z,38.40
2022-12-28T05:42:15.376Z,38.40
2022-12-28T05:44:41.838Z,38.10
2022-12-28T05:47:08.382Z,38.70
2022-12-28T05:49:34.899Z,38.20
2022-12-28T05:52:01.499Z,38.30
2022-12-28T05:54:27.999Z,38.10
2022-12-28T05:56:54.486Z,38.30
2022-12-28T05:59:20.988Z,38.20
2022-12-28T06:01:47.593Z,38.70
2022-12-28T06:04:14.187Z,38.20
2022-12-28T06:06:40.666Z,38.30
2022-12-28T06:09:07.184Z,38.20
2022-12-28T06:11:33.656Z,38.30
2022-12-28T06:14:00.139Z,38.10
2022-12-28T06:16:26.739Z,38.20
2022-12-28T06:18:53.369Z,38.10
2022-12-28T06:23:46.829Z,39.20
2022-12-28T06:26:13.313Z,38.10
2022-12-28T06:28:39.775Z,38.40
2022-12-28T06:31:06.222Z,38.40
2022-12-28T06:33:32.705Z,38.10
2022-12-28T06:35:59.208Z,38.50
2022-12-28T06:38:25.712Z,38.30
2022-12-28T06:41:12.881Z,38.30
2022-12-28T06:46:05.713Z,38.20
2022-12-28T06:48:32.197Z,38.50
2022-12-28T06:53:25.641Z,38.30
2022-12-28T06:55:52.128Z,38.60
2022-12-28T06:58:18.607Z,38.80
2022-12-28T07:00:45.223Z,38.80
2022-12-28T07:03:11.918Z,38.80
2022-12-28T07:05:38.460Z,38.70
2022-12-28T07:08:10.717Z,38.40
2022-12-28T07:10:38.929Z,38.90
2022-12-28T07:13:05.424Z,38.20
2022-12-28T07:17:58.945Z,38.40
2022-12-28T07:20:25.429Z,38.00
2022-12-28T07:22:51.938Z,37.50
2022-12-28T07:25:18.394Z,38.10
2022-12-28T07:27:44.838Z,38.20
2022-12-28T07:30:11.357Z,38.80
2022-12-28T07:32:37.828Z,38.50
2022-12-28T07:35:04.335Z,38.00
2022-12-28T07:39:57.788Z,38.10
2022-12-28T07:42:24.303Z,38.10
2022-12-28T07:44:50.786Z,38.10
2022-12-28T07:47:17.263Z,37.70
2022-12-28T07:49:43.759Z,37.90
2022-12-28T07:52:10.254Z,38.00
2022-12-28T07:54:36.710Z,38.10
2022-12-28T07:57:03.206Z,38.70
2022-12-28T07:59:31.266Z,37.50
2022-12-28T08:01:58.052Z,37.70
2022-12-28T08:04:24.699Z,38.10
2022-12-28T08:06:51.177Z,38.10
2022-12-28T08:09:17.690Z,37.90
2022-12-28T08:11:44.199Z,38.20
2022-12-28T08:14:10.646Z,38.70
2022-12-28T08:16:37.132Z,38.10
2022-12-28T08:19:03.592Z,38.10
2022-12-28T08:21:30.107Z,38.30
2022-12-28T08:23:56.590Z,38.40
2022-12-28T08:26:23.042Z,38.90
2022-12-28T08:28:49.533Z,38.50
2022-12-28T08:31:16.088Z,38.60
2022-12-28T08:36:09.601Z,38.30
2022-12-28T08:38:36.090Z,38.30
2022-12-28T08:41:02.613Z,38.40
2022-12-28T08:43:29.054Z,37.80
2022-12-28T08:45:55.649Z,38.20
2022-12-28T08:48:22.218Z,38.40
2022-12-28T08:50:48.667Z,38.80
2022-12-28T08:53:15.105Z,38.40
2022-12-28T09:00:35.568Z,38.70
2022-12-28T09:03:02.108Z,38.40
2022-12-28T09:05:28.604Z,38.20
2022-12-28T09:07:59.565Z,38.40
2022-12-28T09:10:26.331Z,38.20
2022-12-28T09:12:52.799Z,38.40
2022-12-28T09:15:19.234Z,38.20
2022-12-28T09:17:45.684Z,38.60
2022-12-28T09:20:12.195Z,38.50
2022-12-28T09:25:05.641Z,38.80
2022-12-28T09:27:32.130Z,38.50
2022-12-28T09:29:58.678Z,38.70
2022-12-28T09:34:52.138Z,38.60
2022-12-28T09:37:18.574Z,38.60
2022-12-28T09:39:45.019Z,38.50
2022-12-28T09:42:11.462Z,38.30
2022-12-28T09:44:37.958Z,38.80
2022-12-28T09:47:04.607Z,38.50
2022-12-28T09:49:31.121Z,38.50
2022-12-28T09:51:57.593Z,38.50
2022-12-28T09:54:24.089Z,38.40
2022-12-28T09:56:50.618Z,38.60
2022-12-28T09:59:17.093Z,38.70
2022-12-28T10:01:43.584Z,38.90
2022-12-28T10:04:10.132Z,38.90
2022-12-28T10:06:36.592Z,39.70
2022-12-28T10:09:03.062Z,38.90
2022-12-28T10:11:29.516Z,38.90
2022-12-28T10:13:56.560Z,39.50
2022-12-28T10:16:23.181Z,39.50
2022-12-28T10:18:49.755Z,39.00
2022-12-28T10:21:16.242Z,39.10
2022-12-28T10:26:29.703Z,39.10
2022-12-28T10:28:56.166Z,39.20
2022-12-28T10:31:22.624Z,39.50
2022-12-28T10:36:16.128Z,39.80
2022-12-28T10:38:43.916Z,39.50
2022-12-28T10:41:10.438Z,39.10
2022-12-28T10:43:36.993Z,38.80
2022-12-28T10:46:03.637Z,39.70
2022-12-28T10:48:30.066Z,39.50
2022-12-28T10:50:56.554Z,39.30
2022-12-28T10:53:23.067Z,39.60
2022-12-28T10:55:49.534Z,39.70
2022-12-28T11:00:57.061Z,38.80
2022-12-28T11:03:23.780Z,39.00
2022-12-28T11:05:57.038Z,39.30
2022-12-28T11:08:24.123Z,39.00
2022-12-28T11:13:21.777Z,39.20
2022-12-28T11:18:15.709Z,39.80
2022-12-28T11:20:42.215Z,39.60
2022-12-28T11:23:08.696Z,40.60
2022-12-28T11:25:35.185Z,39.70
2022-12-28T11:28:01.662Z,39.70
2022-12-28T11:30:28.154Z,39.40
2022-12-28T11:32:54.665Z,40.10
2022-12-28T11:35:21.166Z,40.30
2022-12-28T11:37:47.615Z,40.60
2022-12-28T11:40:14.101Z,40.50
2022-12-28T11:42:41.489Z,41.50
2022-12-28T11:45:08.198Z,41.00
2022-12-28T11:47:34.627Z,41.10
2022-12-28T11:50:01.109Z,40.50
2022-12-28T11:52:27.627Z,40.90
2022-12-28T11:59:48.392Z,40.80
2022-12-28T12:02:14.927Z,40.50
2022-12-28T12:04:41.462Z,40.40
2022-12-28T12:07:07.953Z,40.30
2022-12-28T12:09:34.403Z,40.40
2022-12-28T12:14:27.869Z,40.60
2022-12-28T12:16:54.414Z,40.50
2022-12-28T12:21:47.813Z,40.40
2022-12-28T12:24:14.268Z,40.70
2022-12-28T12:26:40.774Z,40.10
2022-12-28T12:29:07.269Z,40.10
2022-12-28T12:34:00.668Z,40.40
2022-12-28T12:36:27.167Z,40.00
2022-12-28T12:41:20.671Z,41.10
2022-12-28T12:43:47.171Z,40.20
2022-12-28T12:46:13.718Z,40.10
2022-12-28T12:48:40.222Z,39.70
2022-12-28T12:51:06.684Z,40.00
2022-12-28T12:53:33.216Z,40.10
2022-12-28T12:55:59.710Z,39.90
2022-12-28T12:58:27.447Z,39.70
2022-12-28T13:05:47.929Z,40.40
2022-12-28T13:08:14.433Z,40.60
2022-12-28T13:10:40.963Z,40.90
2022-12-28T13:13:07.472Z,40.10
2022-12-28T13:15:33.965Z,40.10
2022-12-28T13:18:18.085Z,39.90
2022-12-28T13:20:46.940Z,40.10
2022-12-28T13:23:13.455Z,40.20
2022-12-28T13:25:39.896Z,40.30
2022-12-28T13:28:06.370Z,40.40
2022-12-28T13:30:32.882Z,41.00
2022-12-28T13:32:59.385Z,40.50
2022-12-28T13:35:25.818Z,39.90
2022-12-28T13:37:52.361Z,39.80
2022-12-28T13:40:18.825Z,39.70
2022-12-28T13:42:45.287Z,40.00
2022-12-28T13:45:11.798Z,39.80
2022-12-28T13:47:38.253Z,40.00
2022-12-28T13:52:31.717Z,39.70
2022-12-28T13:54:58.208Z,40.00
2022-12-28T14:00:11.069Z,40.10
2022-12-28T14:02:37.631Z,39.70
2022-12-28T14:05:04.128Z,39.70
2022-12-28T14:07:30.586Z,39.80
2022-12-28T14:12:24.076Z,39.60
2022-12-28T14:14:50.515Z,39.60
2022-12-28T14:17:16.952Z,39.70
2022-12-28T14:19:44.098Z,39.30
2022-12-28T14:22:13.857Z,39.30
2022-12-28T14:24:40.634Z,39.70
2022-12-28T14:27:07.081Z,39.70
2022-12-28T14:29:33.580Z,39.60
2022-12-28T14:34:27.037Z,39.70
2022-12-28T14:36:53.539Z,39.90
2022-12-28T14:39:20.061Z,39.40
2022-12-28T14:44:13.624Z,39.80
2022-12-28T14:46:40.086Z,40.20
2022-12-28T14:54:00.542Z,40.80
2022-12-28T14:56:27.045Z,40.30
2022-12-28T14:58:53.512Z,40.40
2022-12-28T15:01:20.087Z,41.00
2022-12-28T15:03:46.674Z,40.40
2022-12-28T15:06:13.128Z,40.90
2022-12-28T15:08:40.055Z,41.00
2022-12-28T15:11:06.744Z,41.30
2022-12-28T15:13:33.403Z,41.60
2022-12-28T15:15:59.958Z,41.20
2022-12-28T15:18:26.543Z,41.70
2022-12-28T15:20:53.031Z,41.00
2022-12-28T15:23:19.558Z,41.30
2022-12-28T15:28:12.977Z,41.10
2022-12-28T15:30:39.417Z,41.30
2022-12-28T15:33:05.905Z,41.00
2022-12-28T15:37:59.368Z,41.30
2022-12-28T15:40:25.845Z,41.00
2022-12-28T15:42:52.361Z,41.20
2022-12-28T15:45:18.808Z,41.30
2022-12-28T15:47:45.246Z,41.90
2022-12-28T15:50:11.761Z,40.80
2022-12-28T15:52:38.253Z,40.60
2022-12-28T15:55:04.797Z,40.80
2022-12-28T15:59:58.231Z,40.60
2022-12-28T16:02:24.803Z,41.50
2022-12-28T16:04:51.426Z,40.70
2022-12-28T16:07:17.900Z,40.50
2022-12-28T16:09:44.334Z,40.80
2022-12-28T16:12:10.832Z,40.60
2022-12-28T16:14:37.279Z,40.70
2022-12-28T16:17:03.741Z,40.40
2022-12-28T16:21:57.220Z,40.90
2022-12-28T16:24:23.737Z,40.60
2022-12-28T16:26:50.235Z,40.80
2022-12-28T16:36:37.698Z,39.90
2022-12-28T16:39:04.216Z,39.70
2022-12-28T16:41:36.613Z,40.00
2022-12-28T16:44:03.649Z,39.90
2022-12-28T16:46:30.132Z,39.70
2022-12-28T16:51:23.606Z,40.20
2022-12-28T16:53:50.093Z,39.80
2022-12-28T16:56:16.544Z,40.40
2022-12-28T16:58:47.413Z,40.30
2022-12-28T17:01:15.683Z,40.20
2022-12-28T17:03:42.282Z,40.10
2022-12-28T17:06:08.822Z,40.70
2022-12-28T17:08:35.248Z,40.30
2022-12-28T17:11:01.787Z,39.90
2022-12-28T17:15:55.238Z,40.10
2022-12-28T17:18:21.716Z,40.10
2022-12-28T17:20:48.171Z,40.20
2022-12-28T17:23:14.605Z,40.10
2022-12-28T17:25:41.068Z,40.60
2022-12-28T17:28:07.512Z,40.70
2022-12-28T17:30:33.991Z,40.30
2022-12-28T17:33:00.485Z,40.30
2022-12-28T17:35:26.939Z,40.90
2022-12-28T17:40:20.369Z,40.40
2022-12-28T17:42:46.822Z,40.20
2022-12-28T17:47:40.315Z,40.30
2022-12-28T17:50:06.776Z,40.30
2022-12-28T17:52:33.217Z,40.40
2022-12-28T17:57:26.715Z,41.20
2022-12-28T17:59:53.173Z,40.30
2022-12-28T18:02:19.678Z,40.90
2022-12-28T18:04:46.282Z,39.80
2022-12-28T18:09:39.765Z,40.40
2022-12-28T18:12:06.220Z,40.40
2022-12-28T18:16:59.759Z,40.50
2022-12-28T18:19:26.321Z,40.30
2022-12-28T18:21:52.844Z,40.20
2022-12-28T18:24:19.346Z,40.00
2022-12-28T18:26:45.810Z,40.00
2022-12-28T18:29:12.262Z,40.50
2022-12-28T18:31:38.772Z,40.20
2022-12-28T18:34:05.270Z,40.30
2022-12-28T18:36:31.766Z,40.70
2022-12-28T18:38:58.281Z,40.10
2022-12-28T18:41:27.724Z,40.20
2022-12-28T18:43:57.061Z,40.00
2022-12-28T18:46:23.603Z,40.20
2022-12-28T18:48:50.144Z,40.10
2022-12-28T18:51:16.584Z,40.10
2022-12-28T18:53:43.068Z,39.30
2022-12-28T18:56:09.559Z,39.70
2022-12-28T18:58:36.048Z,40.00
2022-12-28T19:03:30.099Z,39.70
2022-12-28T19:08:29.449Z,39.70
2022-12-28T19:10:55.912Z,39.50
2022-12-28T19:13:22.372Z,39.80
2022-12-28T19:15:48.888Z,39.90
2022-12-28T19:18:15.441Z,40.00
2022-12-28T19:20:41.877Z,39.90
2022-12-28T19:23:08.367Z,39.80
2022-12-28T19:25:34.855Z,40.00
2022-12-28T19:30:28.245Z,39.80
2022-12-28T19:35:21.624Z,39.70
2022-12-28T19:37:48.087Z,39.90
2022-12-28T19:40:14.526Z,39.30
2022-12-28T19:50:03.938Z,39.50
2022-12-28T19:52:30.418Z,39.50
2022-12-28T19:54:56.862Z,39.70
2022-12-28T19:57:23.359Z,39.40
2022-12-28T19:59:49.851Z,39.30
2022-12-28T20:02:16.446Z,39.30
2022-12-28T20:04:43.880Z,39.60
2022-12-28T20:07:10.311Z,39.70
2022-12-28T20:12:03.771Z,39.50
2022-12-28T20:19:24.174Z,39.40
2022-12-28T20:21:50.674Z,39.60
2022-12-28T20:24:17.129Z,39.30
2022-12-28T20:29:10.567Z,39.00
2022-12-28T20:31:37.198Z,39.60
2022-12-28T20:34:03.775Z,39.50
2022-12-28T20:36:30.265Z,39.30
2022-12-28T20:38:56.783Z,39.10
2022-12-28T20:41:23.316Z,40.10
2022-12-28T20:43:49.793Z,39.50
2022-12-28T20:46:16.267Z,39.50
2022-12-28T20:48:42.811Z,39.70
2022-12-28T20:51:09.295Z,39.40
2022-12-28T20:53:35.765Z,39.00
2022-12-28T20:56:02.202Z,39.30
2022-12-28T21:00:55.739Z,39.60
2022-12-28T21:03:22.256Z,39.30
2022-12-28T21:05:48.763Z,39.70
2022-12-28T21:10:42.130Z,39.10
2022-12-28T21:13:08.555Z,39.40
2022-12-28T21:15:35.046Z,39.40
2022-12-28T21:18:01.567Z,39.40
2022-12-28T21:20:28.075Z,40.40
2022-12-28T21:22:54.550Z,39.70
2022-12-28T21:25:21.067Z,39.40
2022-12-28T21:27:47.512Z,39.60
2022-12-28T21:32:40.949Z,39.70
2022-12-28T21:35:07.399Z,40.50
2022-12-28T21:37:33.852Z,39.70
2022-12-28T21:42:27.320Z,39.60
2022-12-28T21:44:53.811Z,39.70
2022-12-28T21:47:20.342Z,40.00
2022-12-28T21:52:13.794Z,39.90
2022-12-28T21:54:40.295Z,40.00
2022-12-28T21:57:06.762Z,40.10
2022-12-28T21:59:33.526Z,40.00
2022-12-28T22:02:00.067Z,39.70
2022-12-28T22:04:26.659Z,39.30
2022-12-28T22:06:53.146Z,40.20
2022-12-28T22:11:46.610Z,40.80
2022-12-28T22:14:13.120Z,39.70
2022-12-28T22:16:39.577Z,39.60
2022-12-28T22:21:33.006Z,39.40
2022-12-28T22:23:59.448Z,39.50
2022-12-28T22:26:25.921Z,39.40
2022-12-28T22:28:52.419Z,39.60
2022-12-28T22:31:18.935Z,39.60
2022-12-28T22:33:45.421Z,39.50
2022-12-28T22:36:11.903Z,39.40
2022-12-28T22:38:38.360Z,39.40
2022-12-28T22:43:31.845Z,39.40
2022-12-28T22:45:58.407Z,39.10
2022-12-28T22:50:51.874Z,39.40
2022-12-28T22:53:18.323Z,39.30
2022-12-28T22:55:44.745Z,40.00
2022-12-28T22:58:11.237Z,39.40
2022-12-28T23:00:37.784Z,39.10
2022-12-28T23:03:04.344Z,39.20
2022-12-28T23:05:30.850Z,39.30
2022-12-28T23:07:57.363Z,39.30
2022-12-28T23:10:23.852Z,39.50
2022-12-28T23:12:50.355Z,39.30
2022-12-28T23:15:16.858Z,38.50
2022-12-28T23:20:10.285Z,39.40
2022-12-28T23:22:36.743Z,39.40
2022-12-28T23:25:03.234Z,39.20
2022-12-28T23:27:29.726Z,38.90
2022-12-28T23:29:56.206Z,39.10
2022-12-28T23:34:49.680Z,39.00
2022-12-28T23:37:16.133Z,39.30
2022-12-28T23:39:42.586Z,39.20
2022-12-28T23:42:09.063Z,39.20
2022-12-28T23:44:35.586Z,39.60
2022-12-28T23:47:02.093Z,39.10
2022-12-28T23:49:28.589Z,39.50
2022-12-28T23:51:55.058Z,39.20
2022-12-28T23:54:21.498Z,38.90
2022-12-28T23:59:14.908Z,39.10
